createdAt,value
2017-06-14T00:00:40.695Z,22.6
2017-06-14T00:01:48.780Z,22.6
2017-06-14T00:02:56.865Z,22.6
2017-06-14T00:04:04.954Z,22.7
2017-06-14T00:05:13.041Z,22.6
2017-06-14T00:06:21.129Z,22.6
2017-06-14T00:07:29.216Z,22.6
2017-06-14T00:08:37.309Z,22.7
2017-06-14T00:09:45.391Z,22.7
2017-06-14T00:10:53.480Z,22.6
2017-06-14T00:12:01.569Z,22.6
2017-06-14T00:13:09.651Z,22.6
2017-06-14T00:14:17.742Z,22.6
2017-06-14T00:15:25.827Z,22.6
2017-06-14T00:16:33.916Z,22.6
2017-06-14T00:17:42.003Z,22.6
2017-06-14T00:18:50.090Z,22.6
2017-06-14T00:19:58.177Z,22.6
2017-06-14T00:21:06.263Z,22.7
2017-06-14T00:22:14.350Z,22.6
2017-06-14T00:23:22.436Z,22.6
2017-06-14T00:24:30.530Z,22.6
2017-06-14T00:25:38.618Z,22.6
2017-06-14T00:26:46.705Z,22.6
2017-06-14T00:27:54.794Z,22.6
2017-06-14T00:29:02.880Z,22.5
2017-06-14T00:30:10.971Z,22.6
2017-06-14T00:31:19.078Z,22.6
2017-06-14T00:32:27.141Z,22.6
2017-06-14T00:33:35.227Z,22.5
2017-06-14T00:34:43.316Z,22.6
2017-06-14T00:35:51.403Z,22.6
2017-06-14T00:36:59.491Z,22.6
2017-06-14T00:38:07.580Z,22.5
2017-06-14T00:39:15.664Z,22.5
2017-06-14T00:40:23.754Z,22.6
2017-06-14T00:41:31.863Z,22.6
2017-06-14T00:42:39.925Z,22.6
2017-06-14T00:43:48.013Z,22.6
2017-06-14T00:44:56.103Z,22.6
2017-06-14T00:46:04.188Z,22.5
2017-06-14T00:47:12.275Z,22.5
2017-06-14T00:48:20.362Z,22.5
2017-06-14T00:49:28.450Z,22.5
2017-06-14T00:50:36.537Z,22.5
2017-06-14T00:51:44.623Z,22.6
2017-06-14T00:52:52.711Z,22.5
2017-06-14T00:54:00.856Z,22.5
2017-06-14T00:55:08.889Z,22.6
2017-06-14T00:56:16.974Z,22.5
2017-06-14T00:57:25.067Z,22.5
2017-06-14T00:58:33.175Z,22.5
2017-06-14T00:59:41.236Z,22.5
2017-06-14T01:00:49.325Z,22.4
2017-06-14T01:01:57.416Z,22.5
2017-06-14T01:03:05.499Z,22.3
2017-06-14T01:04:13.587Z,22.5
2017-06-14T01:05:21.673Z,22.4
2017-06-14T01:06:29.760Z,22.4
2017-06-14T01:07:37.849Z,22.3
2017-06-14T01:08:45.933Z,22.3
2017-06-14T01:09:54.020Z,22.4
2017-06-14T01:11:02.108Z,22.4
2017-06-14T01:12:10.191Z,22.4
2017-06-14T01:13:18.281Z,22.4
2017-06-14T01:14:26.369Z,22.3
2017-06-14T01:15:34.457Z,22.4
2017-06-14T01:16:42.543Z,22.3
2017-06-14T01:17:50.629Z,22.3
2017-06-14T01:18:58.716Z,22.3
2017-06-14T01:20:06.803Z,22.3
2017-06-14T01:21:14.890Z,22.3
2017-06-14T01:22:22.978Z,22.3
2017-06-14T01:23:31.066Z,22.3
2017-06-14T01:24:39.152Z,22.4
2017-06-14T01:25:47.238Z,22.3
2017-06-14T01:26:55.325Z,22.3
2017-06-14T01:28:03.412Z,22.3
2017-06-14T01:29:11.497Z,22.2
2017-06-14T01:30:19.595Z,22.3
2017-06-14T01:31:27.673Z,22.3
2017-06-14T01:32:35.767Z,22.3
2017-06-14T01:33:43.854Z,22.2
2017-06-14T01:34:51.934Z,22.3
2017-06-14T01:36:00.021Z,22.3
2017-06-14T01:37:08.108Z,22.2
2017-06-14T01:38:16.196Z,22.3
2017-06-14T01:39:24.283Z,22.3
2017-06-14T01:40:32.369Z,22.3
2017-06-14T01:41:40.458Z,22.2
2017-06-14T01:42:48.548Z,22.3
2017-06-14T01:43:56.630Z,22.3
2017-06-14T01:45:04.720Z,22.1
2017-06-14T01:46:12.808Z,22.1
2017-06-14T01:47:20.893Z,22.3
2017-06-14T01:48:28.984Z,22.3
2017-06-14T01:49:37.091Z,22.1
2017-06-14T01:50:45.155Z,22.2
2017-06-14T01:51:53.241Z,22.2
2017-06-14T01:53:01.328Z,22.2
2017-06-14T01:54:09.419Z,22.2
2017-06-14T01:55:17.503Z,22.2
2017-06-14T01:56:25.590Z,22.2
2017-06-14T01:57:33.680Z,22.2
2017-06-14T01:58:41.766Z,22.3
2017-06-14T01:59:49.850Z,22.2
2017-06-14T02:00:57.937Z,22.2
2017-06-14T02:02:06.025Z,22.3
2017-06-14T02:03:14.114Z,22.2
2017-06-14T02:04:22.202Z,22.1
2017-06-14T02:05:30.288Z,22.2
2017-06-14T02:06:38.377Z,22.2
2017-06-14T02:07:46.461Z,22.2
2017-06-14T02:08:54.547Z,22.2
2017-06-14T02:10:02.633Z,22.1
2017-06-14T02:11:10.722Z,22.2
2017-06-14T02:12:18.808Z,22.1
2017-06-14T02:13:26.897Z,22.1
2017-06-14T02:14:34.987Z,22.1
2017-06-14T02:15:43.070Z,22.1
2017-06-14T02:16:51.158Z,22.1
2017-06-14T02:17:59.246Z,22.1
2017-06-14T02:19:07.337Z,22.1
2017-06-14T02:20:15.433Z,22.1
2017-06-14T02:21:23.511Z,22.1
2017-06-14T02:22:31.599Z,22.1
2017-06-14T02:23:39.707Z,22.1
2017-06-14T02:24:47.775Z,22.1
2017-06-14T02:25:55.862Z,22.1
2017-06-14T02:27:03.947Z,22.0
2017-06-14T02:28:12.033Z,22.1
2017-06-14T02:29:20.118Z,22.0
2017-06-14T02:30:28.208Z,22.1
2017-06-14T02:31:36.292Z,22.0
2017-06-14T02:32:44.382Z,22.0
2017-06-14T02:33:52.468Z,22.0
2017-06-14T02:35:00.559Z,22.0
2017-06-14T02:36:08.666Z,22.0
2017-06-14T02:37:16.729Z,22.0
2017-06-14T02:38:24.827Z,22.0
2017-06-14T02:39:32.907Z,22.0
2017-06-14T02:40:41.022Z,22.0
2017-06-14T02:41:49.081Z,21.9
2017-06-14T02:42:57.198Z,21.9
2017-06-14T02:44:05.262Z,21.9
2017-06-14T02:45:13.347Z,22.0
2017-06-14T02:46:21.434Z,21.9
2017-06-14T02:47:29.520Z,21.9
2017-06-14T02:48:37.607Z,21.9
2017-06-14T02:49:45.694Z,21.9
2017-06-14T02:50:53.783Z,21.9
2017-06-14T02:52:01.877Z,21.9
2017-06-14T02:53:09.954Z,22.0
2017-06-14T02:54:18.042Z,21.9
2017-06-14T02:55:26.128Z,21.9
2017-06-14T02:56:34.228Z,21.9
2017-06-14T02:57:42.309Z,21.9
2017-06-14T02:58:50.395Z,21.9
2017-06-14T02:59:58.480Z,21.9
2017-06-14T03:01:06.571Z,21.9
2017-06-14T03:02:14.655Z,21.9
2017-06-14T03:03:22.742Z,21.9
2017-06-14T03:04:30.836Z,21.9
2017-06-14T03:05:38.915Z,21.9
2017-06-14T03:06:47.003Z,21.9
2017-06-14T03:07:55.087Z,21.9
2017-06-14T03:09:03.177Z,21.9
2017-06-14T03:10:11.267Z,21.9
2017-06-14T03:11:19.351Z,21.9
2017-06-14T03:12:27.438Z,21.9
2017-06-14T03:13:35.526Z,21.8
2017-06-14T03:14:43.616Z,21.8
2017-06-14T03:15:51.699Z,21.8
2017-06-14T03:16:59.795Z,21.8
2017-06-14T03:18:07.873Z,21.8
2017-06-14T03:19:15.961Z,21.9
2017-06-14T03:20:24.045Z,21.8
2017-06-14T03:21:32.131Z,21.8
2017-06-14T03:22:40.219Z,21.7
2017-06-14T03:23:48.303Z,21.8
2017-06-14T03:24:56.395Z,21.7
2017-06-14T03:26:04.477Z,21.8
2017-06-14T03:27:12.572Z,21.7
2017-06-14T03:28:20.658Z,21.7
2017-06-14T03:29:28.751Z,21.8
2017-06-14T03:30:36.837Z,21.8
2017-06-14T03:31:44.951Z,21.7
2017-06-14T03:32:53.010Z,21.7
2017-06-14T03:34:01.097Z,21.7
2017-06-14T03:35:09.185Z,21.7
2017-06-14T03:36:17.272Z,21.7
2017-06-14T03:37:25.357Z,21.7
2017-06-14T03:38:33.445Z,21.7
2017-06-14T03:39:41.530Z,21.7
2017-06-14T03:40:49.615Z,21.7
2017-06-14T03:41:57.704Z,21.7
2017-06-14T03:43:05.790Z,21.7
2017-06-14T03:44:13.876Z,21.7
2017-06-14T03:45:21.964Z,21.7
2017-06-14T03:46:30.057Z,21.7
2017-06-14T03:47:38.137Z,21.7
2017-06-14T03:48:46.258Z,21.7
2017-06-14T03:49:54.316Z,21.7
2017-06-14T03:51:02.403Z,21.7
2017-06-14T03:52:10.489Z,21.6
2017-06-14T03:53:18.578Z,21.7
2017-06-14T03:54:26.783Z,21.7
2017-06-14T03:55:34.751Z,21.7
2017-06-14T03:56:42.927Z,21.7
2017-06-14T03:57:50.936Z,21.7
2017-06-14T03:58:59.024Z,21.6
2017-06-14T04:00:07.117Z,21.7
2017-06-14T04:01:15.204Z,21.6
2017-06-14T04:02:23.298Z,21.6
2017-06-14T04:03:31.375Z,21.6
2017-06-14T04:04:39.462Z,21.6
2017-06-14T04:05:47.548Z,21.7
2017-06-14T04:06:55.635Z,21.6
2017-06-14T04:08:03.721Z,21.7
2017-06-14T04:09:11.810Z,21.6
2017-06-14T04:10:19.896Z,21.7
2017-06-14T04:11:27.985Z,21.5
2017-06-14T04:12:36.067Z,21.7
2017-06-14T04:13:44.242Z,21.6
2017-06-14T04:14:52.241Z,21.6
2017-06-14T04:16:00.327Z,21.6
2017-06-14T04:17:08.414Z,21.7
2017-06-14T04:18:16.500Z,21.7
2017-06-14T04:19:24.589Z,21.7
2017-06-14T04:20:32.686Z,21.6
2017-06-14T04:21:40.761Z,21.8
2017-06-14T04:22:48.850Z,21.6
2017-06-14T04:23:56.933Z,21.6
2017-06-14T04:25:05.020Z,21.6
2017-06-14T04:26:13.114Z,21.6
2017-06-14T04:27:21.202Z,21.6
2017-06-14T04:28:29.287Z,21.6
2017-06-14T04:29:37.375Z,21.6
2017-06-14T04:30:45.460Z,21.7
2017-06-14T04:31:53.546Z,21.6
2017-06-14T04:33:01.634Z,21.6
2017-06-14T04:34:09.746Z,21.6
2017-06-14T04:35:17.804Z,21.6
2017-06-14T04:36:25.891Z,21.7
2017-06-14T04:37:33.983Z,21.6
2017-06-14T04:38:42.072Z,21.6
2017-06-14T04:39:50.179Z,21.6
2017-06-14T04:40:58.246Z,21.7
2017-06-14T04:42:06.325Z,21.6
2017-06-14T04:43:14.419Z,21.6
2017-06-14T04:44:22.505Z,21.6
2017-06-14T04:45:30.592Z,21.6
2017-06-14T04:46:38.688Z,21.6
2017-06-14T04:47:46.766Z,21.6
2017-06-14T04:48:54.852Z,21.6
2017-06-14T04:50:02.940Z,21.6
2017-06-14T04:51:11.022Z,21.6
2017-06-14T04:52:19.112Z,21.5
2017-06-14T04:53:27.200Z,21.6
2017-06-14T04:54:35.286Z,21.6
2017-06-14T04:55:43.376Z,21.5
2017-06-14T04:56:51.465Z,21.6
2017-06-14T04:57:59.546Z,21.6
2017-06-14T04:59:07.630Z,21.6
2017-06-14T05:00:15.714Z,21.5
2017-06-14T05:01:23.802Z,21.5
2017-06-14T05:02:31.888Z,21.5
2017-06-14T05:03:40.458Z,21.5
2017-06-14T05:04:48.591Z,21.5
2017-06-14T05:05:56.183Z,21.6
2017-06-14T05:07:04.235Z,21.6
2017-06-14T05:08:12.553Z,21.6
2017-06-14T05:09:20.862Z,21.6
2017-06-14T05:10:29.016Z,21.5
2017-06-14T05:11:36.729Z,21.6
2017-06-14T05:12:44.817Z,21.5
2017-06-14T05:13:53.367Z,21.5
2017-06-14T05:15:01.004Z,21.6
2017-06-14T05:16:08.925Z,21.6
2017-06-14T05:17:17.172Z,21.6
2017-06-14T05:18:25.238Z,21.6
2017-06-14T05:19:33.348Z,21.5
2017-06-14T05:20:41.702Z,21.5
2017-06-14T05:21:49.481Z,21.5
2017-06-14T05:22:58.345Z,21.6
2017-06-14T05:24:05.692Z,21.6
2017-06-14T05:25:13.626Z,21.6
2017-06-14T05:26:21.714Z,21.6
2017-06-14T05:27:29.859Z,21.6
2017-06-14T05:28:37.884Z,21.7
2017-06-14T05:29:45.969Z,21.6
2017-06-14T05:30:54.067Z,21.6
2017-06-14T05:32:02.150Z,21.6
2017-06-14T05:33:10.240Z,21.6
2017-06-14T05:34:18.325Z,21.6
2017-06-14T05:35:26.412Z,21.6
2017-06-14T05:36:34.497Z,21.6
2017-06-14T05:37:42.584Z,21.6
2017-06-14T05:38:50.670Z,21.6
2017-06-14T05:39:58.756Z,21.7
2017-06-14T05:41:07.167Z,21.6
2017-06-14T05:42:15.348Z,21.7
2017-06-14T05:43:23.043Z,21.7
2017-06-14T05:44:31.106Z,21.7
2017-06-14T05:45:39.195Z,21.7
2017-06-14T05:46:47.278Z,21.6
2017-06-14T05:47:55.364Z,21.6
2017-06-14T05:49:03.451Z,21.6
2017-06-14T05:50:11.540Z,21.7
2017-06-14T05:51:19.626Z,21.7
2017-06-14T05:52:27.713Z,21.7
2017-06-14T05:53:35.800Z,21.7
2017-06-14T05:54:43.889Z,21.6
2017-06-14T05:55:51.973Z,21.6
2017-06-14T05:57:00.064Z,21.6
2017-06-14T05:58:08.147Z,21.7
2017-06-14T05:59:16.234Z,21.7
2017-06-14T06:00:24.326Z,21.7
2017-06-14T06:01:32.427Z,21.7
2017-06-14T06:02:40.505Z,21.7
2017-06-14T06:03:48.588Z,21.7
2017-06-14T06:04:56.709Z,21.7
2017-06-14T06:06:04.761Z,21.7
2017-06-14T06:07:12.847Z,21.5
2017-06-14T06:08:20.950Z,21.7
2017-06-14T06:09:29.029Z,21.6
2017-06-14T06:10:37.115Z,21.6
2017-06-14T06:11:45.201Z,21.7
2017-06-14T06:12:53.290Z,21.7
2017-06-14T06:14:01.402Z,21.6
2017-06-14T06:15:09.461Z,21.5
2017-06-14T06:16:17.550Z,21.7
2017-06-14T06:17:25.637Z,21.6
2017-06-14T06:18:33.723Z,21.5
2017-06-14T06:19:41.814Z,21.7
2017-06-14T06:20:49.895Z,21.6
2017-06-14T06:21:57.993Z,21.7
2017-06-14T06:23:06.075Z,21.7
2017-06-14T06:24:14.156Z,21.6
2017-06-14T06:25:22.269Z,21.7
2017-06-14T06:26:30.330Z,21.7
2017-06-14T06:27:38.425Z,21.6
2017-06-14T06:28:46.503Z,21.6
2017-06-14T06:29:54.589Z,21.6
2017-06-14T06:31:02.677Z,21.7
2017-06-14T06:32:10.769Z,21.6
2017-06-14T06:33:18.852Z,21.7
2017-06-14T06:34:26.937Z,21.6
2017-06-14T06:35:35.022Z,21.7
2017-06-14T06:36:43.113Z,21.6
2017-06-14T06:37:51.199Z,21.6
2017-06-14T06:38:59.283Z,21.7
2017-06-14T06:40:07.399Z,21.6
2017-06-14T06:41:15.458Z,21.8
2017-06-14T06:42:23.550Z,21.6
2017-06-14T06:43:31.636Z,21.6
2017-06-14T06:44:39.723Z,21.6
2017-06-14T06:45:47.809Z,21.6
2017-06-14T06:46:55.896Z,21.7
2017-06-14T06:48:03.984Z,21.6
2017-06-14T06:49:12.070Z,21.8
2017-06-14T06:50:20.159Z,21.6
2017-06-14T06:51:28.248Z,21.7
2017-06-14T06:52:36.331Z,21.7
2017-06-14T06:53:44.417Z,21.6
2017-06-14T06:54:52.504Z,21.6
2017-06-14T06:56:00.591Z,21.6
2017-06-14T06:57:08.678Z,21.6
2017-06-14T06:58:16.765Z,21.7
2017-06-14T06:59:24.851Z,21.6
2017-06-14T07:00:32.947Z,21.6
2017-06-14T07:01:41.034Z,21.7
2017-06-14T07:02:49.114Z,21.6
2017-06-14T07:03:57.203Z,21.6
2017-06-14T07:05:05.290Z,21.6
2017-06-14T07:06:13.378Z,21.7
2017-06-14T07:07:21.464Z,21.6
2017-06-14T07:08:29.553Z,21.7
2017-06-14T07:09:37.646Z,21.6
2017-06-14T07:10:45.726Z,21.7
2017-06-14T07:11:53.813Z,21.6
2017-06-14T07:13:01.930Z,21.6
2017-06-14T07:14:09.990Z,21.6
2017-06-14T07:15:18.078Z,21.6
2017-06-14T07:16:26.165Z,21.6
2017-06-14T07:17:34.252Z,21.6
2017-06-14T07:18:42.341Z,21.6
2017-06-14T07:19:50.426Z,21.6
2017-06-14T07:20:58.511Z,21.7
2017-06-14T07:22:06.605Z,21.6
2017-06-14T07:23:14.685Z,21.7
2017-06-14T07:24:22.772Z,21.6
2017-06-14T07:25:30.861Z,21.6
2017-06-14T07:26:38.948Z,21.7
2017-06-14T07:27:47.034Z,21.7
2017-06-14T07:28:55.128Z,21.6
2017-06-14T07:30:03.213Z,21.6
2017-06-14T07:31:11.298Z,21.7
2017-06-14T07:32:19.387Z,21.6
2017-06-14T07:33:27.472Z,21.6
2017-06-14T07:34:35.559Z,21.7
2017-06-14T07:35:43.646Z,21.6
2017-06-14T07:36:51.734Z,21.6
2017-06-14T07:37:59.915Z,21.6
2017-06-14T07:39:07.903Z,21.7
2017-06-14T07:40:15.990Z,21.6
2017-06-14T07:41:24.084Z,21.7
2017-06-14T07:42:32.176Z,21.6
2017-06-14T07:43:40.258Z,21.7
2017-06-14T07:44:48.348Z,21.7
2017-06-14T07:45:56.433Z,21.7
2017-06-14T07:47:04.520Z,21.6
2017-06-14T07:48:12.605Z,21.7
2017-06-14T07:49:20.693Z,21.7
2017-06-14T07:50:28.785Z,21.7
2017-06-14T07:51:36.872Z,21.7
2017-06-14T07:52:44.961Z,21.7
2017-06-14T07:53:53.048Z,21.7
2017-06-14T07:55:01.255Z,21.6
2017-06-14T07:56:09.220Z,21.7
2017-06-14T07:57:17.310Z,21.7
2017-06-14T07:58:25.398Z,21.8
2017-06-14T07:59:33.483Z,21.8
2017-06-14T08:00:41.571Z,21.7
2017-06-14T08:01:49.665Z,21.8
2017-06-14T08:02:57.748Z,21.7
2017-06-14T08:04:05.839Z,21.7
2017-06-14T08:05:13.924Z,21.7
2017-06-14T08:06:22.010Z,21.7
2017-06-14T08:07:30.104Z,21.7
2017-06-14T08:08:38.184Z,21.7
2017-06-14T08:09:46.271Z,21.8
2017-06-14T08:10:54.360Z,21.7
2017-06-14T08:12:02.450Z,21.8
2017-06-14T08:13:10.539Z,21.8
2017-06-14T08:14:18.617Z,21.8
2017-06-14T08:15:26.707Z,21.8
2017-06-14T08:16:34.795Z,21.8
2017-06-14T08:17:42.881Z,21.8
2017-06-14T08:18:50.974Z,21.9
2017-06-14T08:19:59.061Z,21.8
2017-06-14T08:21:07.158Z,21.8
2017-06-14T08:22:15.234Z,21.8
2017-06-14T08:23:23.322Z,21.8
2017-06-14T08:24:31.409Z,21.9
2017-06-14T08:25:39.500Z,21.8
2017-06-14T08:26:47.583Z,21.9
2017-06-14T08:27:55.672Z,21.9
2017-06-14T08:29:03.765Z,21.9
2017-06-14T08:30:11.847Z,21.9
2017-06-14T08:31:19.936Z,21.8
2017-06-14T08:32:28.022Z,21.9
2017-06-14T08:33:36.114Z,21.9
2017-06-14T08:34:44.196Z,21.9
2017-06-14T08:35:52.280Z,21.9
2017-06-14T08:37:00.368Z,21.9
2017-06-14T08:38:08.478Z,21.9
2017-06-14T08:39:16.543Z,21.9
2017-06-14T08:40:24.631Z,21.9
2017-06-14T08:41:32.717Z,21.9
2017-06-14T08:42:40.810Z,21.9
2017-06-14T08:43:48.899Z,21.9
2017-06-14T08:44:56.985Z,22.0
2017-06-14T08:46:05.076Z,22.0
2017-06-14T08:47:13.164Z,22.0
2017-06-14T08:48:21.248Z,21.9
2017-06-14T08:49:29.336Z,21.9
2017-06-14T08:50:37.421Z,21.9
2017-06-14T08:51:45.511Z,22.1
2017-06-14T08:52:53.595Z,21.9
2017-06-14T08:54:01.682Z,22.0
2017-06-14T08:55:09.773Z,22.0
2017-06-14T08:56:17.866Z,22.1
2017-06-14T08:57:25.954Z,22.0
2017-06-14T08:58:34.043Z,22.1
2017-06-14T08:59:42.129Z,22.1
2017-06-14T09:00:50.218Z,22.0
2017-06-14T09:01:58.303Z,22.1
2017-06-14T09:03:06.417Z,22.1
2017-06-14T09:04:14.482Z,22.0
2017-06-14T09:05:22.569Z,22.1
2017-06-14T09:06:30.654Z,22.1
2017-06-14T09:07:38.742Z,22.1
2017-06-14T09:08:46.831Z,22.1
2017-06-14T09:09:54.924Z,22.1
2017-06-14T09:11:03.004Z,22.1
2017-06-14T09:12:11.098Z,22.1
2017-06-14T09:13:19.189Z,22.1
2017-06-14T09:14:27.277Z,22.1
2017-06-14T09:15:35.358Z,22.1
2017-06-14T09:16:43.445Z,22.2
2017-06-14T09:17:51.535Z,22.2
2017-06-14T09:18:59.622Z,22.1
2017-06-14T09:20:07.713Z,22.2
2017-06-14T09:21:15.797Z,22.2
2017-06-14T09:22:23.884Z,22.2
2017-06-14T09:23:31.982Z,22.2
2017-06-14T09:24:40.058Z,22.2
2017-06-14T09:25:48.150Z,22.2
2017-06-14T09:26:56.236Z,22.2
2017-06-14T09:28:04.325Z,22.2
2017-06-14T09:29:12.411Z,22.2
2017-06-14T09:30:20.497Z,22.2
2017-06-14T09:31:28.586Z,22.2
2017-06-14T09:32:36.675Z,22.2
2017-06-14T09:33:44.762Z,22.2
2017-06-14T09:34:52.851Z,22.3
2017-06-14T09:36:00.939Z,22.3
2017-06-14T09:37:09.061Z,22.3
2017-06-14T09:38:17.115Z,22.3
2017-06-14T09:39:25.202Z,22.2
2017-06-14T09:40:33.291Z,22.2
2017-06-14T09:41:41.378Z,22.3
2017-06-14T09:42:49.467Z,22.3
2017-06-14T09:43:57.554Z,22.3
2017-06-14T09:45:05.642Z,22.3
2017-06-14T09:46:13.729Z,22.3
2017-06-14T09:47:21.818Z,22.3
2017-06-14T09:48:29.905Z,22.3
2017-06-14T09:49:37.993Z,22.2
2017-06-14T09:50:46.081Z,22.3
2017-06-14T09:51:54.169Z,22.3
2017-06-14T09:53:02.256Z,22.3
2017-06-14T09:54:10.379Z,22.3
2017-06-14T09:55:18.432Z,22.3
2017-06-14T09:56:26.530Z,22.3
2017-06-14T09:57:34.605Z,22.3
2017-06-14T09:58:42.694Z,22.3
2017-06-14T09:59:50.785Z,22.3
2017-06-14T10:00:58.868Z,22.4
2017-06-14T10:02:06.957Z,22.4
2017-06-14T10:03:15.076Z,22.4
2017-06-14T10:04:23.135Z,22.4
2017-06-14T10:05:31.222Z,22.4
2017-06-14T10:06:39.315Z,22.4
2017-06-14T10:07:47.403Z,22.4
2017-06-14T10:08:55.491Z,22.3
2017-06-14T10:10:03.576Z,22.4
2017-06-14T10:11:11.693Z,22.4
2017-06-14T10:12:19.754Z,22.4
2017-06-14T10:13:27.844Z,22.5
2017-06-14T10:14:35.934Z,22.5
2017-06-14T10:15:44.020Z,22.4
2017-06-14T10:16:52.107Z,22.4
2017-06-14T10:18:00.194Z,22.5
2017-06-14T10:19:08.283Z,22.5
2017-06-14T10:20:16.394Z,22.5
2017-06-14T10:21:24.458Z,22.5
2017-06-14T10:22:32.557Z,22.6
2017-06-14T10:23:40.643Z,22.5
2017-06-14T10:24:48.730Z,22.4
2017-06-14T10:25:56.819Z,22.5
2017-06-14T10:27:04.904Z,22.5
2017-06-14T10:28:12.992Z,22.5
2017-06-14T10:29:21.087Z,22.5
2017-06-14T10:30:29.169Z,22.5
2017-06-14T10:31:37.265Z,22.5
2017-06-14T10:32:45.351Z,22.5
2017-06-14T10:33:53.450Z,22.5
2017-06-14T10:35:01.529Z,22.6
2017-06-14T10:36:09.619Z,22.6
2017-06-14T10:37:17.715Z,22.6
2017-06-14T10:38:25.804Z,22.6
2017-06-14T10:39:33.964Z,22.5
2017-06-14T10:40:41.981Z,22.6
2017-06-14T10:41:50.068Z,22.5
2017-06-14T10:42:58.155Z,22.6
2017-06-14T10:44:06.241Z,22.6
2017-06-14T10:45:14.330Z,22.6
2017-06-14T10:46:22.421Z,22.7
2017-06-14T10:47:30.508Z,22.6
2017-06-14T10:48:38.595Z,22.6
2017-06-14T10:49:46.687Z,22.6
2017-06-14T10:50:54.771Z,22.6
2017-06-14T10:52:02.858Z,22.6
2017-06-14T10:53:10.948Z,22.6
2017-06-14T10:54:19.035Z,22.6
2017-06-14T10:55:27.120Z,22.6
2017-06-14T10:56:35.211Z,22.6
2017-06-14T10:57:43.301Z,22.6
2017-06-14T10:58:51.388Z,22.6
2017-06-14T10:59:59.476Z,22.6
2017-06-14T11:01:07.562Z,22.6
2017-06-14T11:02:15.649Z,22.6
2017-06-14T11:03:23.739Z,22.6
2017-06-14T11:04:31.825Z,22.6
2017-06-14T11:05:39.914Z,22.6
2017-06-14T11:06:48.009Z,22.6
2017-06-14T11:07:56.099Z,22.7
2017-06-14T11:09:04.186Z,22.7
2017-06-14T11:10:12.269Z,22.7
2017-06-14T11:11:20.417Z,22.6
2017-06-14T11:12:28.449Z,22.6
2017-06-14T11:13:36.546Z,22.6
2017-06-14T11:14:44.627Z,22.6
2017-06-14T11:15:52.714Z,22.6
2017-06-14T11:17:00.801Z,22.8
2017-06-14T11:18:08.894Z,22.7
2017-06-14T11:19:17.015Z,22.8
2017-06-14T11:20:25.067Z,22.8
2017-06-14T11:21:33.153Z,22.8
2017-06-14T11:22:41.244Z,22.7
2017-06-14T11:23:49.332Z,22.8
2017-06-14T11:24:57.419Z,22.8
2017-06-14T11:26:05.506Z,22.7
2017-06-14T11:27:13.596Z,22.8
2017-06-14T11:28:21.682Z,22.7
2017-06-14T11:29:29.770Z,22.8
2017-06-14T11:30:37.860Z,22.8
2017-06-14T11:31:45.948Z,22.7
2017-06-14T11:32:54.035Z,22.9
2017-06-14T11:34:02.123Z,22.8
2017-06-14T11:35:10.210Z,22.7
2017-06-14T11:36:18.359Z,22.8
2017-06-14T11:37:26.389Z,22.9
2017-06-14T11:38:34.484Z,22.8
2017-06-14T11:39:42.574Z,22.8
2017-06-14T11:40:50.663Z,22.8
2017-06-14T11:41:58.750Z,22.8
2017-06-14T11:43:06.838Z,22.8
2017-06-14T11:44:14.927Z,22.9
2017-06-14T11:45:23.047Z,22.8
2017-06-14T11:46:31.105Z,22.9
2017-06-14T11:47:39.216Z,22.8
2017-06-14T11:48:47.279Z,22.9
2017-06-14T11:49:55.368Z,22.9
2017-06-14T11:51:03.459Z,22.9
2017-06-14T11:52:11.549Z,22.8
2017-06-14T11:53:19.634Z,22.9
2017-06-14T11:54:27.723Z,22.9
2017-06-14T11:55:35.807Z,22.8
2017-06-14T11:56:43.899Z,22.9
2017-06-14T11:57:51.985Z,22.9
2017-06-14T11:59:00.074Z,22.9
2017-06-14T12:00:08.161Z,22.9
2017-06-14T12:01:16.251Z,22.8
2017-06-14T12:02:24.347Z,23.0
2017-06-14T12:03:32.426Z,23.0
2017-06-14T12:04:40.515Z,23.0
2017-06-14T12:05:48.604Z,22.9
2017-06-14T12:06:56.711Z,23.0
2017-06-14T12:08:04.796Z,23.0
2017-06-14T12:09:12.876Z,22.9
2017-06-14T12:10:20.955Z,22.9
2017-06-14T12:11:29.044Z,23.0
2017-06-14T12:12:37.134Z,22.9
2017-06-14T12:13:45.225Z,23.0
2017-06-14T12:14:53.309Z,23.0
2017-06-14T12:16:01.397Z,22.9
2017-06-14T12:17:09.516Z,23.0
2017-06-14T12:18:17.573Z,23.0
2017-06-14T12:19:25.666Z,23.0
2017-06-14T12:20:33.751Z,23.0
2017-06-14T12:21:41.838Z,23.0
2017-06-14T12:22:49.927Z,22.9
2017-06-14T12:23:58.015Z,22.9
2017-06-14T12:25:06.114Z,23.0
2017-06-14T12:26:14.191Z,23.1
2017-06-14T12:27:22.279Z,23.0
2017-06-14T12:28:30.372Z,23.0
2017-06-14T12:29:38.457Z,23.0
2017-06-14T12:30:46.546Z,23.0
2017-06-14T12:31:54.632Z,23.0
2017-06-14T12:33:02.721Z,23.1
2017-06-14T12:34:10.815Z,23.1
2017-06-14T12:35:18.904Z,23.1
2017-06-14T12:36:26.992Z,23.0
2017-06-14T12:37:35.081Z,23.1
2017-06-14T12:38:43.174Z,23.1
2017-06-14T12:39:51.266Z,23.1
2017-06-14T12:40:59.345Z,23.1
2017-06-14T12:42:07.434Z,23.1
2017-06-14T12:43:15.523Z,23.1
2017-06-14T12:44:23.610Z,23.1
2017-06-14T12:45:31.698Z,23.1
2017-06-14T12:46:39.784Z,23.1
2017-06-14T12:47:47.874Z,23.1
2017-06-14T12:48:55.969Z,23.1
2017-06-14T12:50:04.058Z,23.2
2017-06-14T12:51:12.146Z,23.1
2017-06-14T12:52:20.239Z,23.2
2017-06-14T12:53:28.336Z,23.1
2017-06-14T12:54:36.412Z,23.2
2017-06-14T12:55:44.497Z,23.2
2017-06-14T12:56:52.590Z,23.2
2017-06-14T12:58:00.677Z,23.1
2017-06-14T12:59:08.765Z,23.1
2017-06-14T13:00:16.855Z,23.2
2017-06-14T13:01:24.944Z,23.1
2017-06-14T13:02:33.032Z,23.1
2017-06-14T13:03:41.278Z,23.2
2017-06-14T13:04:49.208Z,23.1
2017-06-14T13:05:57.293Z,23.2
2017-06-14T13:07:05.382Z,23.1
2017-06-14T13:08:13.925Z,23.1
2017-06-14T13:09:21.557Z,23.2
2017-06-14T13:10:29.857Z,23.2
2017-06-14T13:11:37.740Z,23.2
2017-06-14T13:12:45.827Z,23.2
2017-06-14T13:13:53.928Z,23.2
2017-06-14T13:15:02.004Z,23.1
2017-06-14T13:16:10.097Z,23.2
2017-06-14T13:17:18.182Z,23.2
2017-06-14T13:18:26.269Z,23.2
2017-06-14T13:19:34.359Z,23.3
2017-06-14T13:20:42.445Z,23.2
2017-06-14T13:21:50.535Z,23.2
2017-06-14T13:22:58.624Z,23.2
2017-06-14T13:24:06.711Z,23.3
2017-06-14T13:25:14.801Z,23.3
2017-06-14T13:26:22.890Z,23.3
2017-06-14T13:27:30.977Z,23.4
2017-06-14T13:28:39.067Z,23.3
2017-06-14T13:29:47.155Z,23.2
2017-06-14T13:30:55.241Z,23.3
2017-06-14T13:32:03.333Z,23.3
2017-06-14T13:33:11.419Z,23.3
2017-06-14T13:34:19.506Z,23.3
2017-06-14T13:35:27.597Z,23.3
2017-06-14T13:36:35.685Z,23.3
2017-06-14T13:37:43.774Z,23.3
2017-06-14T13:38:51.867Z,23.3
2017-06-14T13:39:59.950Z,23.3
2017-06-14T13:41:08.041Z,23.3
2017-06-14T13:42:16.127Z,23.3
2017-06-14T13:43:24.216Z,23.3
2017-06-14T13:44:32.304Z,23.4
2017-06-14T13:45:40.392Z,23.3
2017-06-14T13:46:48.480Z,23.3
2017-06-14T13:47:56.570Z,23.3
2017-06-14T13:49:04.661Z,23.3
2017-06-14T13:50:12.748Z,23.3
2017-06-14T13:51:20.838Z,23.3
2017-06-14T13:52:28.927Z,23.3
2017-06-14T13:53:37.014Z,23.3
2017-06-14T13:54:45.102Z,23.3
2017-06-14T13:55:53.190Z,23.3
2017-06-14T13:57:01.278Z,23.4
2017-06-14T13:58:09.366Z,23.3
2017-06-14T13:59:17.458Z,23.3
2017-06-14T14:00:25.547Z,23.4
2017-06-14T14:01:33.634Z,23.4
2017-06-14T14:02:41.720Z,23.3
2017-06-14T14:03:49.810Z,23.5
2017-06-14T14:04:57.898Z,23.5
2017-06-14T14:06:05.987Z,23.4
2017-06-14T14:07:14.078Z,23.4
2017-06-14T14:08:22.167Z,23.4
2017-06-14T14:09:30.253Z,23.4
2017-06-14T14:10:38.344Z,23.4
2017-06-14T14:11:46.430Z,23.4
2017-06-14T14:12:54.518Z,23.4
2017-06-14T14:14:02.607Z,23.4
2017-06-14T14:15:10.696Z,23.5
2017-06-14T14:16:18.785Z,23.4
2017-06-14T14:17:26.874Z,23.3
2017-06-14T14:18:34.987Z,23.3
2017-06-14T14:19:43.052Z,23.4
2017-06-14T14:20:51.141Z,23.4
2017-06-14T14:21:59.229Z,23.4
2017-06-14T14:23:07.321Z,23.5
2017-06-14T14:24:15.408Z,23.5
2017-06-14T14:25:23.493Z,23.4
2017-06-14T14:26:31.584Z,23.3
2017-06-14T14:27:39.672Z,23.5
2017-06-14T14:28:47.897Z,23.4
2017-06-14T14:29:55.849Z,23.4
2017-06-14T14:31:03.938Z,23.3
2017-06-14T14:32:12.025Z,23.5
2017-06-14T14:33:20.128Z,23.3
2017-06-14T14:34:28.627Z,23.5
2017-06-14T14:39:00.566Z,23.4
2017-06-14T14:40:08.654Z,23.4
2017-06-14T14:41:16.740Z,23.4
2017-06-14T14:42:24.839Z,23.5
2017-06-14T14:43:32.917Z,23.5
2017-06-14T14:44:41.006Z,23.4
2017-06-14T14:45:49.095Z,23.5
2017-06-14T14:46:57.184Z,23.4
2017-06-14T14:48:05.271Z,23.5
2017-06-14T14:49:13.369Z,23.4
2017-06-14T14:50:21.817Z,23.5
2017-06-14T14:51:29.538Z,23.5
2017-06-14T14:52:37.625Z,23.4
2017-06-14T14:53:45.902Z,23.4
2017-06-14T14:54:53.830Z,23.5
2017-06-14T14:56:01.894Z,23.5
2017-06-14T14:57:09.982Z,23.5
2017-06-14T14:58:18.086Z,23.5
2017-06-14T14:59:26.160Z,23.5
2017-06-14T15:00:34.248Z,23.5
2017-06-14T15:01:42.349Z,23.5
2017-06-14T15:02:50.437Z,23.6
2017-06-14T15:03:58.526Z,23.6
2017-06-14T15:05:06.615Z,23.5
2017-06-14T15:06:14.708Z,23.6
2017-06-14T15:07:22.799Z,23.4
2017-06-14T15:08:30.898Z,23.5
2017-06-14T15:09:38.980Z,23.4